createdAt,value
2023-03-16T00:01:12.881Z,101516.25
2023-03-16T00:03:58.128Z,101521.16
2023-03-16T00:06:42.957Z,101522.53
2023-03-16T00:09:31.133Z,101526.34
2023-03-16T00:12:19.448Z,101520.91
2023-03-16T00:15:05.116Z,101526.00
2023-03-16T00:17:51.591Z,101536.56
2023-03-16T00:20:36.432Z,101525.41
2023-03-16T00:23:27.169Z,101531.00
2023-03-16T00:26:13.009Z,101529.13
2023-03-16T00:28:57.896Z,101531.81
2023-03-16T00:31:43.903Z,101529.00
2023-03-16T00:34:30.354Z,101534.91
2023-03-16T00:37:18.497Z,101531.34
2023-03-16T00:40:04.496Z,101526.75
2023-03-16T00:42:49.746Z,101529.25
2023-03-16T00:45:35.054Z,101537.59
2023-03-16T00:48:21.176Z,101530.31
2023-03-16T00:51:09.194Z,101541.78
2023-03-16T00:53:54.013Z,101534.09
2023-03-16T00:56:38.839Z,101531.75
2023-03-16T00:59:26.103Z,101537.16
2023-03-16T01:02:12.341Z,101540.03
2023-03-16T01:04:57.600Z,101532.69
2023-03-16T01:07:42.932Z,101533.94
2023-03-16T01:10:28.407Z,101528.34
2023-03-16T01:13:13.713Z,101532.50
2023-03-16T01:15:59.891Z,101533.31
2023-03-16T01:18:44.911Z,101528.47
2023-03-16T01:21:30.333Z,101521.81
2023-03-16T01:24:15.231Z,101521.31
2023-03-16T01:27:00.629Z,101525.63
2023-03-16T01:29:45.798Z,101529.44
2023-03-16T01:32:31.107Z,101521.97
2023-03-16T01:35:15.932Z,101510.84
2023-03-16T01:38:00.899Z,101518.41
2023-03-16T01:40:46.148Z,101517.41
2023-03-16T01:43:33.273Z,101501.53
2023-03-16T01:46:22.877Z,101510.88
2023-03-16T01:49:26.633Z,101503.97
2023-03-16T01:52:21.164Z,101500.69
2023-03-16T01:55:08.843Z,101503.69
2023-03-16T01:57:56.952Z,101498.44
2023-03-16T02:00:42.167Z,101499.69
2023-03-16T02:03:28.042Z,101496.06
2023-03-16T02:06:19.006Z,101499.59
2023-03-16T02:09:05.652Z,101493.25
2023-03-16T02:11:51.911Z,101498.00
2023-03-16T02:14:36.844Z,101504.38
2023-03-16T02:17:25.216Z,101502.56
2023-03-16T02:20:26.333Z,101505.50
2023-03-16T02:23:18.415Z,101509.16
2023-03-16T02:26:27.977Z,101505.75
2023-03-16T02:29:41.678Z,101513.47
2023-03-16T02:32:28.944Z,101512.50
2023-03-16T02:35:14.356Z,101508.66
2023-03-16T02:37:59.976Z,101507.91
2023-03-16T02:40:52.885Z,101515.09
2023-03-16T02:43:42.565Z,101507.13
2023-03-16T02:46:28.878Z,101508.50
2023-03-16T02:49:21.804Z,101510.00
2023-03-16T02:52:08.149Z,101506.28
2023-03-16T02:54:53.095Z,101505.31
2023-03-16T02:57:38.226Z,101502.56
2023-03-16T03:00:23.155Z,101500.91
2023-03-16T03:03:09.303Z,101498.00
2023-03-16T03:05:54.323Z,101499.69
2023-03-16T03:08:39.114Z,101495.31
2023-03-16T03:11:25.219Z,101492.44
2023-03-16T03:14:10.411Z,101491.78
2023-03-16T03:16:56.310Z,101497.84
2023-03-16T03:19:41.423Z,101492.28
2023-03-16T03:22:27.904Z,101491.97
2023-03-16T03:25:15.029Z,101493.41
2023-03-16T03:28:01.982Z,101485.25
2023-03-16T03:30:47.034Z,101491.75
2023-03-16T03:33:33.578Z,101490.34
2023-03-16T03:36:18.497Z,101486.22
2023-03-16T03:39:05.034Z,101478.53
2023-03-16T03:41:54.400Z,101481.28
2023-03-16T03:44:39.414Z,101483.91
2023-03-16T03:47:24.563Z,101489.31
2023-03-16T03:50:11.269Z,101490.44
2023-03-16T03:52:56.191Z,101490.19
2023-03-16T03:55:41.218Z,101482.25
2023-03-16T03:58:26.665Z,101491.88
2023-03-16T04:01:11.490Z,101485.81
2023-03-16T04:03:56.589Z,101489.00
2023-03-16T04:06:41.641Z,101482.06
2023-03-16T04:09:27.029Z,101494.63
2023-03-16T04:12:12.300Z,101495.06
2023-03-16T04:14:57.689Z,101491.34
2023-03-16T04:17:42.902Z,101495.72
2023-03-16T04:20:29.717Z,101492.69
2023-03-16T04:23:16.549Z,101496.28
2023-03-16T04:26:01.857Z,101495.81
2023-03-16T04:28:47.782Z,101502.78
2023-03-16T04:31:33.431Z,101507.81
2023-03-16T04:34:18.227Z,101501.66
2023-03-16T04:37:03.093Z,101498.78
2023-03-16T04:39:48.274Z,101499.03
2023-03-16T04:42:33.181Z,101503.41
2023-03-16T04:45:18.593Z,101503.63
2023-03-16T04:48:03.952Z,101500.78
2023-03-16T04:50:49.268Z,101497.31
2023-03-16T04:53:34.076Z,101499.47
2023-03-16T04:56:19.966Z,101496.53
2023-03-16T04:59:05.044Z,101497.53
2023-03-16T05:01:50.291Z,101502.03
2023-03-16T05:04:35.409Z,101510.38
2023-03-16T05:07:21.228Z,101506.69
2023-03-16T05:10:07.235Z,101506.03
2023-03-16T05:12:52.428Z,101508.38
2023-03-16T05:15:37.366Z,101503.63
2023-03-16T05:18:23.006Z,101507.53
2023-03-16T05:21:08.294Z,101503.34
2023-03-16T05:23:54.501Z,101506.41
2023-03-16T05:26:39.629Z,101507.25
2023-03-16T05:29:26.006Z,101516.13
2023-03-16T05:32:11.539Z,101506.81
2023-03-16T05:34:56.765Z,101508.66
2023-03-16T05:37:42.901Z,101496.00
2023-03-16T05:40:28.854Z,101496.75
2023-03-16T05:43:13.845Z,101505.81
2023-03-16T05:45:58.765Z,101501.38
2023-03-16T05:48:43.652Z,101501.19
2023-03-16T05:51:28.683Z,101506.88
2023-03-16T05:54:13.848Z,101512.00
2023-03-16T05:56:59.112Z,101514.03
2023-03-16T05:59:44.290Z,101495.63
2023-03-16T06:02:29.616Z,101505.75
2023-03-16T06:05:15.736Z,101496.91
2023-03-16T06:08:01.563Z,101492.63
2023-03-16T06:10:48.110Z,101483.56
2023-03-16T06:13:35.331Z,101485.69
2023-03-16T06:16:21.094Z,101489.22
2023-03-16T06:19:06.347Z,101484.00
2023-03-16T06:21:51.034Z,101477.59
2023-03-16T06:24:35.933Z,101477.50
2023-03-16T06:27:21.329Z,101473.41
2023-03-16T06:30:08.625Z,101481.59
2023-03-16T06:32:53.704Z,101481.78
2023-03-16T06:35:38.804Z,101482.00
2023-03-16T06:38:26.133Z,101494.84
2023-03-16T06:41:11.614Z,101489.88
2023-03-16T06:43:57.219Z,101487.53
2023-03-16T06:46:42.547Z,101497.88
2023-03-16T06:49:28.630Z,101503.44
2023-03-16T06:52:14.707Z,101511.94
2023-03-16T06:54:59.593Z,101510.03
2023-03-16T06:57:44.793Z,101512.59
2023-03-16T07:00:30.634Z,101513.25
2023-03-16T07:03:16.225Z,101509.91
2023-03-16T07:06:01.537Z,101508.38
2023-03-16T07:08:46.368Z,101506.00
2023-03-16T07:11:32.513Z,101512.72
2023-03-16T07:14:19.552Z,101513.44
2023-03-16T07:17:04.731Z,101522.06
2023-03-16T07:19:49.656Z,101529.00
2023-03-16T07:22:35.424Z,101535.84
2023-03-16T07:25:20.461Z,101537.88
2023-03-16T07:28:06.031Z,101538.00
2023-03-16T07:31:03.076Z,101541.59
2023-03-16T07:33:49.541Z,101553.03
2023-03-16T07:36:34.282Z,101547.19
2023-03-16T07:39:19.661Z,101542.00
2023-03-16T07:42:04.761Z,101551.50
2023-03-16T07:44:51.817Z,101549.94
2023-03-16T07:47:37.157Z,101542.44
2023-03-16T07:50:24.641Z,101544.31
2023-03-16T07:53:10.138Z,101542.88
2023-03-16T07:55:55.744Z,101539.56
2023-03-16T07:58:41.765Z,101548.44
2023-03-16T08:01:27.165Z,101544.22
2023-03-16T08:04:12.853Z,101546.16
2023-03-16T08:07:00.158Z,101552.28
2023-03-16T08:09:45.170Z,101551.31
2023-03-16T08:12:30.163Z,101553.22
2023-03-16T08:15:15.603Z,101549.28
2023-03-16T08:18:02.464Z,101554.03
2023-03-16T08:20:47.514Z,101552.53
2023-03-16T08:23:33.519Z,101556.19
2023-03-16T08:26:23.087Z,101556.28
2023-03-16T08:29:07.818Z,101557.91
2023-03-16T08:31:56.128Z,101563.97
2023-03-16T08:34:42.115Z,101552.19
2023-03-16T08:37:27.483Z,101556.84
2023-03-16T08:40:17.018Z,101560.72
2023-03-16T08:43:02.431Z,101563.66
2023-03-16T08:45:48.310Z,101560.34
2023-03-16T08:48:33.718Z,101564.00
2023-03-16T08:51:19.341Z,101571.09
2023-03-16T08:54:05.056Z,101565.25
2023-03-16T08:56:52.640Z,101560.19
2023-03-16T08:59:38.532Z,101556.03
2023-03-16T09:02:25.244Z,101549.38
2023-03-16T09:05:12.374Z,101556.34
2023-03-16T09:07:57.604Z,101549.59
2023-03-16T09:10:42.457Z,101540.16
2023-03-16T09:13:29.980Z,101545.41
2023-03-16T09:16:15.981Z,101545.34
2023-03-16T09:19:01.371Z,101540.28
2023-03-16T09:21:47.440Z,101548.94
2023-03-16T09:24:32.845Z,101549.00
2023-03-16T09:27:18.635Z,101541.25
2023-03-16T09:30:05.398Z,101539.53
2023-03-16T09:32:50.744Z,101537.88
2023-03-16T09:35:37.407Z,101532.66
2023-03-16T09:38:22.456Z,101540.56
2023-03-16T09:41:10.915Z,101532.75
2023-03-16T09:44:29.559Z,101528.47
2023-03-16T09:47:16.550Z,101526.72
2023-03-16T09:50:07.323Z,101530.94
2023-03-16T09:53:14.258Z,101527.56
2023-03-16T09:56:27.233Z,101512.94
2023-03-16T09:59:15.145Z,101523.44
2023-03-16T10:02:42.011Z,101518.22
2023-03-16T10:05:28.568Z,101508.59
2023-03-16T10:08:16.665Z,101511.31
2023-03-16T10:11:04.880Z,101513.09
2023-03-16T10:14:17.461Z,101500.13
2023-03-16T10:17:40.509Z,101492.38
2023-03-16T10:20:28.449Z,101491.47
2023-03-16T10:23:20.443Z,101493.19
2023-03-16T10:26:13.412Z,101492.34
2023-03-16T10:29:01.841Z,101495.81
2023-03-16T10:31:47.312Z,101501.88
2023-03-16T10:34:32.558Z,101494.06
2023-03-16T10:37:17.401Z,101484.56
2023-03-16T10:40:09.345Z,101492.34
2023-03-16T10:42:54.974Z,101484.56
2023-03-16T10:45:47.099Z,101478.47
2023-03-16T10:48:34.708Z,101475.00
2023-03-16T10:51:25.604Z,101486.25
2023-03-16T10:54:19.715Z,101481.94
2023-03-16T10:57:15.777Z,101475.78
2023-03-16T11:00:21.539Z,101465.44
2023-03-16T11:03:22.797Z,101464.50
2023-03-16T11:06:21.138Z,101474.91
2023-03-16T11:09:22.712Z,101467.97
2023-03-16T11:12:35.244Z,101463.63
2023-03-16T11:15:26.075Z,101457.50
2023-03-16T11:18:25.306Z,101447.63
2023-03-16T11:21:51.191Z,101457.34
2023-03-16T11:24:52.473Z,101444.34
2023-03-16T11:27:54.104Z,101430.44
2023-03-16T11:31:01.273Z,101424.47
2023-03-16T11:33:49.583Z,101422.63
2023-03-16T11:36:44.074Z,101428.75
2023-03-16T11:39:44.904Z,101418.28
2023-03-16T11:42:42.891Z,101407.75
2023-03-16T11:45:37.011Z,101409.44
2023-03-16T11:48:48.685Z,101404.72
2023-03-16T11:52:05.160Z,101402.13
2023-03-16T11:55:03.419Z,101406.38
2023-03-16T11:58:24.412Z,101397.63
2023-03-16T12:01:25.759Z,101395.97
2023-03-16T12:04:22.170Z,101401.16
2023-03-16T12:07:25.775Z,101398.53
2023-03-16T12:10:29.289Z,101391.69
2023-03-16T12:13:35.781Z,101376.19
2023-03-16T12:16:48.351Z,101387.75
2023-03-16T12:19:42.166Z,101364.28
2023-03-16T12:22:37.259Z,101359.75
2023-03-16T12:25:27.788Z,101356.13
2023-03-16T12:28:33.283Z,101363.66
2023-03-16T12:31:43.019Z,101360.84
2023-03-16T12:34:56.475Z,101349.69
2023-03-16T12:37:48.197Z,101353.09
2023-03-16T12:40:55.082Z,101345.84
2023-03-16T12:43:52.010Z,101336.34
2023-03-16T12:47:04.859Z,101344.22
2023-03-16T12:49:51.948Z,101338.50
2023-03-16T12:52:52.318Z,101333.31
2023-03-16T12:55:38.192Z,101336.59
2023-03-16T12:58:26.262Z,101337.56
2023-03-16T13:01:13.303Z,101333.06
2023-03-16T13:04:03.498Z,101326.13
2023-03-16T13:07:03.071Z,101312.47
2023-03-16T13:09:54.410Z,101308.16
2023-03-16T13:12:41.603Z,101304.84
2023-03-16T13:15:28.269Z,101302.81
2023-03-16T13:18:33.822Z,101301.13
2023-03-16T13:21:41.181Z,101305.09
2023-03-16T13:24:35.443Z,101299.06
2023-03-16T13:27:25.425Z,101300.81
2023-03-16T13:30:32.302Z,101281.66
2023-03-16T13:33:25.507Z,101281.84
2023-03-16T13:36:12.947Z,101280.28
2023-03-16T13:39:06.800Z,101274.03
2023-03-16T13:42:10.662Z,101264.56
2023-03-16T13:44:58.079Z,101268.38
2023-03-16T13:47:45.208Z,101270.94
2023-03-16T13:50:34.609Z,101276.03
2023-03-16T13:53:28.439Z,101260.53
2023-03-16T13:56:16.903Z,101255.69
2023-03-16T13:59:04.532Z,101241.22
2023-03-16T14:01:58.565Z,101239.63
2023-03-16T14:04:43.838Z,101249.25
2023-03-16T14:07:29.328Z,101236.38
2023-03-16T14:10:20.382Z,101242.47
2023-03-16T14:13:22.224Z,101237.56
2023-03-16T14:16:12.524Z,101234.13
2023-03-16T14:19:02.291Z,101225.50
2023-03-16T14:21:47.443Z,101223.88
2023-03-16T14:24:37.258Z,101231.78
2023-03-16T14:27:41.670Z,101221.34
2023-03-16T14:30:30.223Z,101221.44
2023-03-16T14:33:28.704Z,101217.97
2023-03-16T14:36:16.481Z,101198.84
2023-03-16T14:39:14.205Z,101203.22
2023-03-16T14:42:03.068Z,101204.94
2023-03-16T14:44:49.968Z,101208.41
2023-03-16T14:47:42.252Z,101190.28
2023-03-16T14:50:27.944Z,101188.53
2023-03-16T14:53:13.107Z,101182.41
2023-03-16T14:55:59.318Z,101185.94
2023-03-16T14:58:46.161Z,101191.19
2023-03-16T15:01:31.340Z,101186.03
2023-03-16T15:04:23.648Z,101181.69
2023-03-16T15:07:29.455Z,101174.00
2023-03-16T15:10:26.744Z,101168.72
2023-03-16T15:13:35.230Z,101167.13
2023-03-16T15:16:23.072Z,101155.03
2023-03-16T15:19:09.125Z,101146.38
2023-03-16T15:21:57.376Z,101148.97
2023-03-16T15:24:43.928Z,101137.72
2023-03-16T15:27:35.016Z,101137.69
2023-03-16T15:30:26.313Z,101139.50
2023-03-16T15:33:12.867Z,101143.91
2023-03-16T15:35:59.997Z,101131.75
2023-03-16T15:38:54.067Z,101123.09
2023-03-16T15:41:47.589Z,101130.88
2023-03-16T15:44:33.069Z,101130.03
2023-03-16T15:47:19.430Z,101130.03
2023-03-16T15:50:06.057Z,101132.66
2023-03-16T15:52:59.468Z,101129.22
2023-03-16T15:55:47.353Z,101130.13
2023-03-16T15:58:34.860Z,101140.50
2023-03-16T16:01:29.929Z,101125.78
2023-03-16T16:04:19.445Z,101126.69
2023-03-16T16:07:11.134Z,101111.09
2023-03-16T16:09:56.489Z,101105.06
2023-03-16T16:12:42.132Z,101104.19
2023-03-16T16:15:35.981Z,101097.28
2023-03-16T16:18:30.620Z,101090.34
2023-03-16T16:21:23.225Z,101084.31
2023-03-16T16:24:09.678Z,101085.16
2023-03-16T16:26:56.087Z,101087.78
2023-03-16T16:29:40.978Z,101080.03
2023-03-16T16:32:26.512Z,101075.69
2023-03-16T16:35:18.096Z,101082.66
2023-03-16T16:38:04.670Z,101087.00
2023-03-16T16:40:50.897Z,101090.47
2023-03-16T16:43:42.424Z,101083.53
2023-03-16T16:46:30.118Z,101083.56
2023-03-16T16:49:26.989Z,101083.59
2023-03-16T16:52:17.741Z,101075.78
2023-03-16T16:55:03.154Z,101074.09
2023-03-16T16:57:53.665Z,101065.44
2023-03-16T17:00:39.767Z,101060.28
2023-03-16T17:03:30.080Z,101062.03
2023-03-16T17:06:17.653Z,101061.19
2023-03-16T17:09:03.156Z,101056.88
2023-03-16T17:11:50.344Z,101060.34
2023-03-16T17:14:35.766Z,101052.56
2023-03-16T17:17:21.422Z,101056.03
2023-03-16T17:20:17.572Z,101057.78
2023-03-16T17:23:19.451Z,101062.97
2023-03-16T17:26:30.725Z,101057.78
2023-03-16T17:29:22.916Z,101050.91
2023-03-16T17:32:18.422Z,101058.69
2023-03-16T17:35:13.030Z,101055.22
2023-03-16T17:37:59.543Z,101056.09
2023-03-16T17:40:45.328Z,101050.06
2023-03-16T17:43:31.727Z,101050.94
2023-03-16T17:46:24.262Z,101034.50
2023-03-16T17:49:24.406Z,101029.31
2023-03-16T17:52:18.628Z,101026.75
2023-03-16T17:55:05.225Z,101049.25
2023-03-16T17:57:56.688Z,101046.63
2023-03-16T18:00:48.044Z,101042.31
2023-03-16T18:03:33.229Z,101059.63
2023-03-16T18:06:25.554Z,101060.47
2023-03-16T18:09:11.163Z,101056.16
2023-03-16T18:11:56.428Z,101057.03
2023-03-16T18:14:44.265Z,101046.66
2023-03-16T18:17:32.532Z,101053.59
2023-03-16T18:20:27.747Z,101044.06
2023-03-16T18:23:29.151Z,101047.53
2023-03-16T18:26:16.786Z,101047.56
2023-03-16T18:29:01.919Z,101054.44
2023-03-16T18:31:47.867Z,101053.59
2023-03-16T18:34:35.490Z,101061.41
2023-03-16T18:37:23.438Z,101056.19
2023-03-16T18:40:18.950Z,101053.59
2023-03-16T18:43:08.538Z,101044.97
2023-03-16T18:45:54.934Z,101038.03
2023-03-16T18:48:48.853Z,101038.03
2023-03-16T18:51:35.688Z,101037.19
2023-03-16T18:54:32.144Z,101038.03
2023-03-16T18:57:22.248Z,101031.16
2023-03-16T19:00:08.109Z,101026.84
2023-03-16T19:03:02.048Z,101018.19
2023-03-16T19:05:47.309Z,101021.63
2023-03-16T19:08:34.215Z,101013.00
2023-03-16T19:11:19.852Z,101015.59
2023-03-16T19:14:15.102Z,101023.41
2023-03-16T19:17:05.316Z,101012.16
2023-03-16T19:19:52.191Z,101013.00
2023-03-16T19:22:40.497Z,101018.22
2023-03-16T19:25:38.276Z,101014.75
2023-03-16T19:28:40.560Z,101013.91
2023-03-16T19:31:28.051Z,101006.09
2023-03-16T19:34:18.456Z,101009.56
2023-03-16T19:37:03.306Z,100999.19
2023-03-16T19:39:48.576Z,101001.78
2023-03-16T19:42:34.263Z,101000.94
2023-03-16T19:45:29.240Z,100992.28
2023-03-16T19:48:23.050Z,100999.19
2023-03-16T19:51:35.738Z,100987.13
2023-03-16T19:54:26.691Z,100991.41
2023-03-16T19:57:17.177Z,100993.16
2023-03-16T20:00:02.440Z,100994.03
2023-03-16T20:02:48.383Z,100990.56
2023-03-16T20:05:33.657Z,100986.25
2023-03-16T20:08:28.466Z,100980.19
2023-03-16T20:11:27.656Z,100976.75
2023-03-16T20:14:23.679Z,100974.16
2023-03-16T20:17:22.608Z,100969.84
2023-03-16T20:20:18.349Z,100970.69
2023-03-16T20:23:26.922Z,100969.84
2023-03-16T20:26:22.894Z,100966.38
2023-03-16T20:29:28.482Z,100968.91
2023-03-16T20:32:22.954Z,100972.38
2023-03-16T20:35:16.974Z,100965.44
2023-03-16T20:38:01.897Z,100956.84
2023-03-16T20:40:51.060Z,100951.63
2023-03-16T20:43:36.183Z,100946.47
2023-03-16T20:46:32.593Z,100946.47
2023-03-16T20:49:29.147Z,100948.22
2023-03-16T20:52:22.728Z,100949.06
2023-03-16T20:55:12.904Z,100929.22
2023-03-16T20:57:58.924Z,100932.66
2023-03-16T21:00:45.563Z,100921.44
2023-03-16T21:03:33.264Z,100919.72
2023-03-16T21:06:24.343Z,100915.41
2023-03-16T21:09:12.261Z,100912.78
2023-03-16T21:11:57.384Z,100912.81
2023-03-16T21:14:42.308Z,100904.19
2023-03-16T21:17:34.412Z,100901.59
2023-03-16T21:20:21.440Z,100901.56
2023-03-16T21:23:13.731Z,100897.25
2023-03-16T21:26:03.580Z,100901.59
2023-03-16T21:29:01.350Z,100896.41
2023-03-16T21:31:46.244Z,100891.25
2023-03-16T21:34:36.150Z,100890.38
2023-03-16T21:37:26.726Z,100886.06
2023-03-16T21:40:20.794Z,100889.50
2023-03-16T21:43:06.220Z,100886.91
2023-03-16T21:45:52.353Z,100887.78
2023-03-16T21:48:39.993Z,100880.03
2023-03-16T21:51:30.107Z,100882.63
2023-03-16T21:54:16.763Z,100873.97
2023-03-16T21:57:02.726Z,100873.97
2023-03-16T21:59:50.149Z,100870.53
2023-03-16T22:02:36.912Z,100861.91
2023-03-16T22:05:34.986Z,100861.91
2023-03-16T22:08:30.541Z,100846.38
2023-03-16T22:11:25.263Z,100842.91
2023-03-16T22:14:11.780Z,100839.44
2023-03-16T22:16:57.258Z,100840.34
2023-03-16T22:19:42.358Z,100828.25
2023-03-16T22:22:31.890Z,100832.56
2023-03-16T22:25:21.856Z,100823.09
2023-03-16T22:28:11.446Z,100820.47
2023-03-16T22:30:58.167Z,100823.06
2023-03-16T22:33:44.168Z,100814.44
2023-03-16T22:36:32.766Z,100811.00
2023-03-16T22:39:18.123Z,100804.97
2023-03-16T22:42:22.233Z,100808.41
2023-03-16T22:45:28.041Z,100792.00
2023-03-16T22:48:22.332Z,100794.59
2023-03-16T22:51:31.378Z,100797.19
2023-03-16T22:54:21.175Z,100790.28
2023-03-16T22:57:07.117Z,100787.72
2023-03-16T22:59:52.631Z,100780.78
2023-03-16T23:02:37.488Z,100784.25
2023-03-16T23:05:25.576Z,100781.66
2023-03-16T23:08:21.051Z,100788.56
2023-03-16T23:11:13.584Z,100783.38
2023-03-16T23:14:00.345Z,100770.47
2023-03-16T23:16:47.150Z,100749.75
2023-03-16T23:19:34.269Z,100758.38
2023-03-16T23:22:19.079Z,100759.25
2023-03-16T23:25:04.265Z,100757.53
2023-03-16T23:27:51.405Z,100747.19
2023-03-16T23:30:36.367Z,100738.56
2023-03-16T23:33:22.032Z,100730.78
2023-03-16T23:36:14.645Z,100744.56
2023-03-16T23:39:00.591Z,100742.00
2023-03-16T23:41:49.496Z,100744.56
2023-03-16T23:44:34.552Z,100748.00
2023-03-16T23:47:21.440Z,100747.16
2023-03-16T23:50:07.944Z,100741.16
2023-03-16T23:52:53.004Z,100748.91
2023-03-16T23:55:38.291Z,100747.16
2023-03-16T23:58:23.888Z,100740.28
